• Join FlightAware (Why Join?)
  • Login
  • US Flag 
09:00PM EST


 

Airport Tracker/Info


-or-


 

Live Flight TrackerFlight Track Log ✈ EMD24 ✈ 20-Jun-2013 ✈ KMKC - KGLD

Flight Track Log - Related Links

Times and Time Zones

All times are in EDT time to prevent confusion due to time zone crossing. See the EMD24 flight status page for this flight to view local times or setup timezone preferences in your user account.

Time Position Orientation Groundspeed Altitude Reporting Facility
EDT Latitude Longitude Course Direction KTS MPH feet Rate Location/Type
03:32AM 39.1167 -94.6000 247° West 116 133 1,600  Level Kansas City TRACON
03:33AM 39.1000 -94.6500 247° West 129 148 3,400 1,440 Climbing Kansas City TRACON
03:34AM 39.1086 -94.6939 284° West 139 160 4,600 1,260 Climbing Kansas City Center
03:35AM 39.1117 -94.7494 274° West 161 185 5,900 1,380 Climbing Kansas City Center
03:36AM 39.1175 -94.8139 277° West 162 186 7,500 1,500 Climbing Kansas City Center
03:37AM 39.1225 -94.8625 278° West 145 167 8,900 1,380 Climbing Kansas City Center
03:38AM 39.1233 -94.9131 271° West 146 168 10,300 1,380 Climbing Kansas City Center
03:39AM 39.1275 -94.9739 275° West 155 178 11,800 1,260 Climbing Kansas City Center
03:40AM 39.1306 -95.0289 274° West 160 184 12,900 1,080 Climbing Kansas City Center
03:41AM 39.1342 -95.0817 275° West 155 178 14,000 1,020 Climbing Kansas City Center
03:42AM 39.1383 -95.1444 275° West 160 184 15,000 840 Climbing Kansas City Center
03:43AM 39.1414 -95.2039 274° West 165 190 15,800 480 Climbing Kansas City Center
03:44AM 39.1450 -95.2706 274° West 188 216 16,000 60 Climbing Kansas City Center
03:45AM 39.1503 -95.3439 275° West 205 236 16,000  Level Kansas City Center
03:46AM 39.1583 -95.4186 278° West 210 242 16,100  Climbing Kansas City Center
03:47AM 39.1603 -95.4839 272° West 211 243 16,100 -60 Level Kansas City Center
03:48AM 39.1664 -95.5653 276° West 204 235 16,000 -60 Descending Kansas City Center
03:49AM 39.1703 -95.6372 274° West 206 237 16,000  Level Kansas City Center
03:50AM 39.1736 -95.7075 274° West 207 238 16,000  Level Kansas City Center
03:51AM 39.1786 -95.7881 275° West 202 232 16,000  Level Kansas City Center
03:52AM 39.1847 -95.8575 276° West 203 234 16,100  Climbing Kansas City Center
03:53AM 39.1878 -95.9258 273° West 202 232 16,000 -60 Descending Kansas City Center
03:54AM 39.1922 -96.0058 274° West 200 230 16,000  Level Kansas City Center
03:55AM 39.1969 -96.0744 275° West 200 230 16,000  Level Kansas City Center
03:56AM 39.2006 -96.1436 274° West 200 230 16,100  Climbing Kansas City Center
03:57AM 39.2036 -96.2136 273° West 203 234 16,000  Descending Kansas City Center
03:58AM 39.2078 -96.2933 274° West 200 230 16,100  Climbing Kansas City Center
03:59AM 39.2117 -96.3631 274° West 203 234 16,100  Level Kansas City Center
04:00AM 39.2161 -96.4331 275° West 204 235 16,100  Level Kansas City Center
04:01AM 39.2200 -96.5144 274° West 203 234 16,100  Level Kansas City Center
04:02AM 39.2233 -96.5836 274° West 203 234 16,100 -60 Level Kansas City Center
04:03AM 39.2269 -96.6533 274° West 204 235 16,000 -60 Descending Kansas City Center
04:04AM 39.2306 -96.7358 273° West 205 236 16,000  Level Kansas City Center
04:05AM 39.2344 -96.8064 274° West 206 237 16,100  Climbing Kansas City Center
04:06AM 39.2417 -96.8761 278° West 205 236 16,000 -60 Descending Kansas City Center
04:07AM 39.2433 -96.9458 272° West 205 236 16,000  Level Kansas City Center
04:08AM 39.2483 -97.0294 274° West 208 239 16,100  Climbing Kansas City Center
04:09AM 39.2486 -97.1008 270° West 208 239 16,000 -60 Descending Kansas City Center
04:10AM 39.2531 -97.1711 275° West 206 237 16,000  Level Kansas City Center
04:11AM 39.2539 -97.2542 271° West 207 238 16,000  Level Kansas City Center
04:12AM 39.2589 -97.3256 275° West 208 239 16,000  Level Kansas City Center
04:13AM 39.2631 -97.3964 274° West 209 241 16,000  Level Kansas City Center
04:14AM 39.2669 -97.4811 273° West 210 242 16,000  Level Kansas City Center
04:15AM 39.2686 -97.5519 272° West 211 243 16,000  Level Kansas City Center
04:16AM 39.2725 -97.6281 274° West 212 244 16,000  Level Kansas City Center
04:17AM 39.2756 -97.7033 273° West 210 242 16,000  Level Kansas City Center
04:18AM 39.2781 -97.7775 273° West 207 238 16,000  Level Kansas City Center
04:19AM 39.2811 -97.8536 273° West 211 243 16,000  Level Kansas City Center
04:20AM 39.2853 -97.9367 274° West 208 239 16,000  Level Kansas City Center
04:21AM 39.2844 -98.0075 269° West 207 238 16,000  Level Kansas City Center
04:22AM 39.2906 -98.0806 276° West 212 244 16,100  Climbing Kansas City Center
04:23AM 39.2911 -98.1522 271° West 210 242 16,100  Level Kansas City Center
04:24AM 39.2936 -98.2283 272° West 210 242 16,100 -60 Level Kansas City Center
04:25AM 39.2969 -98.3025 273° West 207 238 16,000 -60 Descending Kansas City Center
04:26AM 39.2992 -98.3772 272° West 209 241 16,000  Level Kansas City Center
04:27AM 39.3025 -98.4528 273° West 211 243 16,000  Level Kansas City Center
04:28AM 39.3050 -98.5272 273° West 209 241 16,100  Climbing Kansas City Center
04:29AM 39.3092 -98.6061 274° West 210 242 16,100 -60 Level Kansas City Center
04:30AM 39.3128 -98.6917 273° West 213 245 16,000 -60 Descending Kansas City Center
04:31AM 39.3133 -98.7642 271° West 211 243 16,000  Level Kansas City Center
04:32AM 39.3147 -98.8353 271° West 209 241 16,000  Level Kansas City Center
04:33AM 39.3183 -98.9131 273° West 214 246 16,100  Climbing Kansas City Center
04:34AM 39.3217 -98.9875 273° West 210 242 16,000  Descending Kansas City Center
04:35AM 39.3239 -99.0636 272° West 211 243 16,100  Climbing Kansas City Center
04:36AM 39.3261 -99.1392 272° West 212 244 16,000 -180 Descending Kansas City Center
04:37AM 39.3264 -99.1906 270° West 210 242 15,900 -120 Descending Denver Center
04:38AM 39.3297 -99.2761 273° West 215 247 15,900  Level Denver Center
04:39AM 39.3314 -99.3492 272° West 213 245 15,900  Level Denver Center
04:40AM 39.3347 -99.4228 273° West 214 246 15,900  Level Denver Center
04:41AM 39.3358 -99.4958 271° West 213 245 15,900  Level Denver Center
04:42AM 39.3372 -99.5800 271° West 212 244 15,900  Level Denver Center
04:43AM 39.3353 -99.6547 268° West 216 249 15,900  Level Denver Center
04:44AM 39.3372 -99.7286 272° West 215 247 16,000  Climbing Denver Center
04:45AM 39.3450 -99.8142 277° West 215 247 15,900 -60 Descending Denver Center
04:46AM 39.3453 -99.9011 270° West 216 249 15,900  Level Denver Center
04:47AM 39.3458 -99.9753 271° West 216 249 15,900  Level Denver Center
04:48AM 39.3472 -100.0600 271° West 214 246 16,000 60 Climbing Denver Center
04:49AM 39.3503 -100.1331 273° West 214 246 16,100  Climbing Denver Center
04:50AM 39.3511 -100.2053 271° West 212 244 16,000 -60 Descending Denver Center
04:51AM 39.3522 -100.2956 271° West 222 255 16,000  Level Denver Center
04:52AM 39.3547 -100.3681 273° West 215 247 16,000  Level Denver Center
04:53AM 39.3561 -100.4447 271° West 222 255 16,000  Level Denver Center
04:54AM 39.3564 -100.5325 270° West 219 252 16,000  Level Denver Center
04:55AM 39.3581 -100.6078 272° West 219 252 16,000  Level Denver Center
04:56AM 39.3600 -100.6822 272° West 217 250 16,000 -60 Level Denver Center
04:57AM 39.3600 -100.7567 270° West 217 250 15,900 -420 Descending Denver Center
04:58AM 39.3597 -100.8492 270° West 226 260 15,200 -780 Descending Denver Center
04:59AM 39.3617 -100.9319 272° West 238 274 14,400 -900 Descending Denver Center
05:00AM 39.3653 -101.0178 273° West 246 283 13,500 -1,020 Descending Denver Center
05:01AM 39.3672 -101.1114 272° West 237 273 12,400 -900 Descending Denver Center
05:02AM 39.3686 -101.1894 271° West 231 266 11,800 -600 Descending Denver Center
05:03AM 39.3708 -101.2681 272° West 229 264 11,200 -660 Descending Denver Center
05:04AM 39.3722 -101.3444 271° West 226 260 10,500 -900 Descending Denver Center
05:05AM 39.3833 -101.4358 279° West 229 264 9,400 -1,080 Descending Denver Center
05:06AM 39.3956 -101.5139 281° West 231 266 8,400 -1,200 Descending Denver Center
05:07AM 39.4039 -101.5889 278° West 228 262 7,000 -900 Descending Denver Center
05:08AM 39.4125 -101.6606 279° West 227 261 6,700 -300 Descending Denver Center
05:10AM 39.3667 -101.6833 270° West  Level FlightAware Approximate
05:17AM 39.3706 -101.6990 270° West  Level Estimated